createdAt,value
2019-04-05T00:00:06.687Z,8.43
2019-04-05T00:02:39.881Z,8.41
2019-04-05T00:05:12.127Z,8.32
2019-04-05T00:07:43.782Z,8.26
2019-04-05T00:10:16.054Z,8.28
2019-04-05T00:12:49.355Z,8.33
2019-04-05T00:15:21.208Z,8.30
2019-04-05T00:17:52.772Z,8.36
2019-04-05T00:20:24.429Z,8.37
2019-04-05T00:22:55.996Z,8.40
2019-04-05T00:25:27.560Z,8.40
2019-04-05T00:27:59.151Z,8.37
2019-04-05T00:30:31.308Z,8.33
2019-04-05T00:33:03.846Z,8.27
2019-04-05T00:35:35.401Z,8.34
2019-04-05T00:38:06.945Z,8.21
2019-04-05T00:40:38.612Z,8.29
2019-04-05T00:43:10.173Z,8.28
2019-04-05T00:45:41.874Z,8.29
2019-04-05T00:48:13.443Z,8.29
2019-04-05T00:50:45.009Z,8.31
2019-04-05T00:53:16.664Z,8.35
2019-04-05T00:55:48.236Z,8.40
2019-04-05T00:58:19.993Z,8.35
2019-04-05T01:00:51.669Z,8.36
2019-04-05T01:03:23.198Z,8.39
2019-04-05T01:05:55.049Z,8.34
2019-04-05T01:08:26.824Z,8.32
2019-04-05T01:10:58.616Z,8.28
2019-04-05T01:13:31.653Z,8.17
2019-04-05T01:16:04.168Z,8.10
2019-04-05T01:18:35.931Z,8.13
2019-04-05T01:21:09.380Z,8.09
2019-04-05T01:23:41.135Z,8.06
2019-04-05T01:26:14.293Z,7.98
2019-04-05T01:28:46.006Z,7.89
2019-04-05T01:31:17.657Z,7.83
2019-04-05T01:33:49.258Z,7.77
2019-04-05T01:36:20.857Z,7.76
2019-04-05T01:38:54.183Z,7.80
2019-04-05T01:41:25.960Z,7.90
2019-04-05T01:43:57.667Z,7.95
2019-04-05T01:46:30.971Z,8.10
2019-04-05T01:49:04.758Z,8.18
2019-04-05T01:51:36.418Z,8.32
2019-04-05T01:54:08.177Z,8.31
2019-04-05T01:56:39.741Z,8.28
2019-04-05T01:59:11.297Z,8.23
2019-04-05T02:01:43.332Z,8.20
2019-04-05T02:04:14.991Z,8.22
2019-04-05T02:06:46.946Z,8.21
2019-04-05T02:09:18.624Z,8.36
2019-04-05T02:11:50.393Z,8.07
2019-04-05T02:14:22.050Z,7.97
2019-04-05T02:16:53.721Z,7.80
2019-04-05T02:19:25.492Z,7.75
2019-04-05T02:21:57.472Z,7.77
2019-04-05T02:24:29.728Z,7.73
2019-04-05T02:27:03.325Z,7.57
2019-04-05T02:29:35.091Z,7.49
2019-04-05T02:32:07.183Z,7.46
2019-04-05T02:34:39.052Z,7.47
2019-04-05T02:37:10.869Z,7.38
2019-04-05T02:39:42.422Z,7.43
2019-04-05T02:42:14.241Z,7.46
2019-04-05T02:44:47.227Z,7.38
2019-04-05T02:47:20.093Z,7.31
2019-04-05T02:49:52.955Z,7.33
2019-04-05T02:52:25.560Z,7.28
2019-04-05T02:54:57.455Z,7.23
2019-04-05T02:57:29.316Z,7.27
2019-04-05T03:00:01.679Z,7.24
2019-04-05T03:02:36.675Z,7.23
2019-04-05T03:05:08.457Z,7.23
2019-04-05T03:07:41.134Z,7.20
2019-04-05T03:10:33.907Z,7.10
2019-04-05T03:13:05.654Z,7.19
2019-04-05T03:15:37.540Z,7.23
2019-04-05T03:18:09.283Z,7.26
2019-04-05T03:20:41.746Z,7.30
2019-04-05T03:23:13.723Z,7.33
2019-04-05T03:25:48.142Z,7.68
2019-04-05T03:28:19.740Z,7.98
2019-04-05T03:30:51.737Z,7.89
2019-04-05T03:33:23.630Z,7.75
2019-04-05T03:35:56.214Z,7.68
2019-04-05T03:38:28.227Z,7.56
2019-04-05T03:41:01.147Z,7.48
2019-04-05T03:43:32.875Z,7.63
2019-04-05T03:46:05.439Z,7.64
2019-04-05T03:48:37.343Z,7.60
2019-04-05T03:51:09.754Z,7.62
2019-04-05T03:53:41.515Z,7.51
2019-04-05T03:56:13.309Z,7.42
2019-04-05T03:58:45.337Z,7.70
2019-04-05T04:01:18.679Z,7.43
2019-04-05T04:03:50.601Z,7.32
2019-04-05T04:06:22.621Z,7.29
2019-04-05T04:08:55.309Z,7.30
2019-04-05T04:11:27.289Z,7.26
2019-04-05T04:14:00.061Z,7.37
2019-04-05T04:16:32.033Z,7.36
2019-04-05T04:19:03.880Z,7.29
2019-04-05T04:21:58.733Z,7.26
2019-04-05T04:24:30.511Z,7.28
2019-04-05T04:27:02.391Z,7.17
2019-04-05T04:29:34.073Z,7.22
2019-04-05T04:32:05.873Z,7.32
2019-04-05T04:34:37.676Z,7.31
2019-04-05T04:37:10.040Z,7.13
2019-04-05T04:39:42.472Z,7.16
2019-04-05T04:42:14.538Z,7.12
2019-04-05T04:44:46.339Z,7.08
2019-04-05T04:47:26.325Z,7.07
2019-04-05T04:49:54.032Z,7.04
2019-04-05T04:52:26.513Z,7.01
2019-04-05T04:54:58.608Z,7.06
2019-04-05T04:57:30.352Z,7.11
2019-04-05T05:00:02.360Z,7.13
2019-04-05T05:02:34.672Z,7.01
2019-04-05T05:05:07.156Z,6.99
2019-04-05T05:07:39.190Z,7.00
2019-04-05T05:10:11.346Z,6.99
2019-04-05T05:12:44.149Z,6.73
2019-04-05T05:15:16.319Z,6.66
2019-04-05T05:17:58.029Z,6.66
2019-04-05T05:20:22.133Z,6.57
2019-04-05T05:22:54.786Z,6.69
2019-04-05T05:25:26.757Z,6.65
2019-04-05T05:27:59.817Z,6.68
2019-04-05T05:30:31.496Z,6.68
2019-04-05T05:33:03.386Z,6.68
2019-04-05T05:35:35.245Z,6.71
2019-04-05T05:38:06.952Z,6.81
2019-04-05T05:40:38.778Z,6.73
2019-04-05T05:43:10.395Z,6.68
2019-04-05T05:45:42.533Z,6.76
2019-04-05T05:48:14.396Z,6.92
2019-04-05T05:50:46.933Z,6.83
2019-04-05T05:53:18.696Z,6.88
2019-04-05T05:55:50.322Z,6.98
2019-04-05T05:58:23.529Z,7.02
2019-04-05T06:00:56.335Z,7.53
2019-04-05T06:03:27.912Z,7.54
2019-04-05T06:06:04.518Z,7.40
2019-04-05T06:08:32.747Z,7.18
2019-04-05T06:11:04.562Z,7.59
2019-04-05T06:13:36.119Z,7.73
2019-04-05T06:16:07.825Z,7.30
2019-04-05T06:18:39.389Z,7.47
2019-04-05T06:21:11.008Z,7.57
2019-04-05T06:23:42.608Z,7.77
2019-04-05T06:26:14.234Z,7.79
2019-04-05T06:28:45.830Z,7.97
2019-04-05T06:31:17.449Z,7.03
2019-04-05T06:33:49.623Z,7.00
2019-04-05T06:36:22.531Z,6.97
2019-04-05T06:38:54.132Z,7.32
2019-04-05T06:41:25.761Z,7.41
2019-04-05T06:43:57.374Z,7.65
2019-04-05T06:46:28.929Z,7.23
2019-04-05T06:49:00.520Z,7.06
2019-04-05T06:51:32.082Z,7.23
2019-04-05T06:54:03.687Z,7.33
2019-04-05T06:56:35.398Z,7.65
2019-04-05T06:59:06.991Z,7.66
2019-04-05T07:01:38.627Z,7.79
2019-04-05T07:04:10.235Z,8.24
2019-04-05T07:06:41.846Z,8.01
2019-04-05T07:09:13.425Z,8.26
2019-04-05T07:11:45.053Z,8.61
2019-04-05T07:14:16.705Z,8.46
2019-04-05T07:16:49.001Z,8.35
2019-04-05T07:19:20.624Z,8.34
2019-04-05T07:21:53.040Z,8.54
2019-04-05T07:24:24.620Z,8.76
2019-04-05T07:26:56.277Z,9.00
2019-04-05T07:29:27.866Z,8.81
2019-04-05T07:31:59.422Z,9.06
2019-04-05T07:34:30.988Z,9.81
2019-04-05T07:37:02.602Z,11.35
2019-04-05T07:39:34.525Z,13.24
2019-04-05T07:42:06.243Z,14.39
2019-04-05T07:44:37.852Z,14.19
2019-04-05T07:47:09.422Z,13.46
2019-04-05T07:49:41.040Z,12.24
2019-04-05T07:52:13.150Z,12.31
2019-04-05T07:54:44.807Z,13.68
2019-04-05T07:57:17.830Z,14.78
2019-04-05T07:59:49.520Z,16.65
2019-04-05T08:02:22.575Z,17.84
2019-04-05T08:04:54.783Z,21.03
2019-04-05T08:07:30.677Z,23.03
2019-04-05T08:10:03.156Z,20.80
2019-04-05T08:12:35.652Z,17.80
2019-04-05T08:15:07.543Z,15.23
2019-04-05T08:17:39.149Z,13.63
2019-04-05T08:20:10.908Z,12.44
2019-04-05T08:22:42.520Z,12.05
2019-04-05T08:25:14.236Z,11.83
2019-04-05T08:27:45.814Z,11.08
2019-04-05T08:30:18.937Z,11.43
2019-04-05T08:32:50.572Z,11.21
2019-04-05T08:35:22.151Z,10.78
2019-04-05T08:37:54.203Z,10.28
2019-04-05T08:40:25.815Z,10.56
2019-04-05T08:42:57.407Z,10.35
2019-04-05T08:45:28.969Z,10.65
2019-04-05T08:48:00.589Z,11.82
2019-04-05T08:50:32.208Z,12.56
2019-04-05T08:53:03.855Z,16.05
2019-04-05T08:55:35.608Z,19.51
2019-04-05T08:58:07.188Z,21.05
2019-04-05T09:00:38.799Z,21.59
2019-04-05T09:03:11.955Z,22.82
2019-04-05T09:05:43.773Z,22.84
2019-04-05T09:08:15.890Z,22.98
2019-04-05T09:10:48.256Z,22.57
2019-04-05T09:13:19.864Z,22.70
2019-04-05T09:15:51.420Z,21.96
2019-04-05T09:18:23.022Z,23.91
2019-04-05T09:20:54.732Z,25.05
2019-04-05T09:23:26.310Z,23.75
2019-04-05T09:25:57.921Z,21.54
2019-04-05T09:28:29.471Z,21.89
2019-04-05T09:31:01.064Z,21.90
2019-04-05T09:33:32.607Z,22.26
2019-04-05T09:36:04.451Z,20.21
2019-04-05T09:38:36.064Z,20.32
2019-04-05T09:41:07.829Z,18.50
2019-04-05T09:43:39.415Z,16.17
2019-04-05T09:46:10.999Z,16.20
2019-04-05T09:48:42.595Z,17.76
2019-04-05T09:51:14.191Z,18.10
2019-04-05T09:53:47.387Z,20.32
2019-04-05T09:56:18.976Z,21.13
2019-04-05T09:58:50.611Z,19.66
2019-04-05T10:01:22.195Z,16.90
2019-04-05T10:03:53.761Z,15.08
2019-04-05T10:06:25.351Z,13.77
2019-04-05T10:08:57.045Z,13.49
2019-04-05T10:11:28.796Z,12.72
2019-04-05T10:14:00.417Z,12.07
2019-04-05T10:16:32.029Z,12.52
2019-04-05T10:19:03.630Z,13.24
2019-04-05T10:21:35.337Z,14.04
2019-04-05T10:24:07.229Z,15.80
2019-04-05T10:26:39.767Z,16.61
2019-04-05T10:29:11.393Z,16.18
2019-04-05T10:31:42.922Z,15.01
2019-04-05T10:34:14.954Z,13.37
2019-04-05T10:36:46.537Z,12.23
2019-04-05T10:39:18.120Z,11.02
2019-04-05T10:42:02.362Z,10.51
2019-04-05T10:44:23.347Z,10.21
2019-04-05T10:46:55.953Z,10.68
2019-04-05T10:49:27.510Z,13.21
2019-04-05T10:51:59.058Z,15.04
2019-04-05T10:54:30.612Z,17.27
2019-04-05T10:57:02.175Z,19.01
2019-04-05T10:59:34.919Z,21.41
2019-04-05T11:02:06.574Z,22.19
2019-04-05T11:04:39.150Z,22.77
2019-04-05T11:07:11.410Z,23.34
2019-04-05T11:09:43.896Z,23.24
2019-04-05T11:12:15.453Z,23.50
2019-04-05T11:14:47.030Z,25.01
2019-04-05T11:17:18.588Z,23.96
2019-04-05T11:19:50.133Z,20.48
2019-04-05T11:22:21.933Z,19.46
2019-04-05T11:24:53.480Z,17.99
2019-04-05T11:27:25.025Z,16.01
2019-04-05T11:29:57.960Z,14.56
2019-04-05T11:32:29.708Z,13.70
2019-04-05T11:35:01.257Z,12.48
2019-04-05T11:37:33.056Z,11.76
2019-04-05T11:40:05.118Z,11.51
2019-04-05T11:42:39.003Z,11.63
2019-04-05T11:45:11.401Z,11.73
2019-04-05T11:47:43.148Z,11.85
2019-04-05T11:50:15.786Z,12.17
2019-04-05T11:52:47.320Z,12.86
2019-04-05T11:55:19.063Z,14.78
2019-04-05T11:57:50.666Z,16.76
2019-04-05T12:00:26.691Z,17.40
2019-04-05T12:03:01.299Z,16.86
2019-04-05T12:05:32.842Z,15.33
2019-04-05T12:08:04.582Z,14.03
2019-04-05T12:10:36.132Z,14.07
2019-04-05T12:13:07.691Z,13.89
2019-04-05T12:15:39.287Z,13.54
2019-04-05T12:18:10.818Z,13.51
2019-04-05T12:20:52.207Z,13.24
2019-04-05T12:23:15.760Z,13.22
2019-04-05T12:25:47.356Z,13.27
2019-04-05T12:28:18.924Z,13.80
2019-04-05T12:30:51.449Z,13.84
2019-04-05T12:33:22.994Z,14.14
2019-04-05T12:35:56.659Z,13.68
2019-04-05T12:38:32.681Z,13.78
2019-04-05T12:41:04.972Z,13.64
2019-04-05T12:43:36.576Z,13.83
2019-04-05T12:46:08.937Z,13.74
2019-04-05T12:48:45.437Z,13.81
2019-04-05T12:51:16.320Z,13.77
2019-04-05T12:53:48.000Z,13.80
2019-04-05T12:56:19.548Z,13.60
2019-04-05T12:58:51.110Z,13.74
2019-04-05T13:01:22.772Z,14.43
2019-04-05T13:03:54.307Z,14.18
2019-04-05T13:06:25.953Z,14.30
2019-04-05T13:08:57.528Z,14.54
2019-04-05T13:11:29.051Z,14.36
2019-04-05T13:14:00.588Z,13.87
2019-04-05T13:16:33.160Z,13.42
2019-04-05T13:19:04.739Z,13.47
2019-04-05T13:21:37.298Z,13.72
2019-04-05T13:24:10.067Z,13.73
2019-04-05T13:26:42.961Z,13.82
2019-04-05T13:29:14.498Z,14.30
2019-04-05T13:31:46.585Z,14.01
2019-04-05T13:34:19.282Z,13.94
2019-04-05T13:36:50.843Z,14.03
2019-04-05T13:39:22.498Z,14.05
2019-04-05T13:41:54.057Z,14.17
2019-04-05T13:44:25.606Z,13.98
2019-04-05T13:46:57.221Z,14.38
2019-04-05T13:49:28.897Z,15.24
2019-04-05T13:52:00.452Z,15.14
2019-04-05T13:54:32.050Z,14.92
2019-04-05T13:57:03.677Z,14.94
2019-04-05T13:59:35.253Z,15.28
2019-04-05T14:02:07.357Z,15.03
2019-04-05T14:04:38.920Z,14.82
2019-04-05T14:07:10.457Z,14.48
2019-04-05T14:09:42.041Z,14.45
2019-04-05T14:12:13.609Z,14.24
2019-04-05T14:14:48.018Z,14.09
2019-04-05T14:17:18.417Z,13.97
2019-04-05T14:19:49.956Z,13.98
2019-04-05T14:22:22.482Z,13.89
2019-04-05T14:24:56.640Z,13.66
2019-04-05T14:27:27.743Z,13.69
2019-04-05T14:30:00.597Z,13.66
2019-04-05T14:32:34.092Z,13.93
2019-04-05T14:35:07.882Z,13.72
2019-04-05T14:37:41.270Z,13.63
2019-04-05T14:40:14.209Z,13.35
2019-04-05T14:42:46.798Z,12.76
2019-04-05T14:45:18.678Z,12.64
2019-04-05T14:47:50.257Z,12.73
2019-04-05T14:50:21.822Z,12.90
2019-04-05T14:52:53.460Z,13.27
2019-04-05T14:55:25.040Z,12.93
2019-04-05T14:57:56.714Z,13.09
2019-04-05T15:00:28.299Z,12.88
2019-04-05T15:02:59.924Z,12.86
2019-04-05T15:05:31.617Z,12.69
2019-04-05T15:08:03.239Z,12.62
2019-04-05T15:10:35.440Z,12.29
2019-04-05T15:13:07.016Z,11.47
2019-04-05T15:15:39.353Z,10.57
2019-04-05T15:18:11.922Z,10.31
2019-04-05T15:20:43.498Z,10.38
2019-04-05T15:23:15.058Z,10.26
2019-04-05T15:25:49.396Z,10.07
2019-04-05T15:28:19.903Z,10.28
2019-04-05T15:30:51.463Z,10.54
2019-04-05T15:33:23.141Z,10.95
2019-04-05T15:35:58.351Z,11.48
2019-04-05T15:38:31.352Z,11.73
2019-04-05T15:41:02.629Z,11.78
2019-04-05T15:43:35.378Z,11.94
2019-04-05T15:46:07.187Z,11.86
2019-04-05T15:48:38.750Z,11.91
2019-04-05T15:51:10.330Z,11.90
2019-04-05T15:53:41.903Z,12.28
2019-04-05T15:56:13.529Z,12.41
2019-04-05T15:58:45.130Z,12.35
2019-04-05T16:01:17.249Z,11.99
2019-04-05T16:03:48.833Z,11.78
2019-04-05T16:06:20.883Z,11.62
2019-04-05T16:08:52.537Z,11.79
2019-04-05T16:11:24.113Z,12.04
2019-04-05T16:13:55.729Z,12.14
2019-04-05T16:16:28.117Z,11.71
2019-04-05T16:18:59.823Z,12.05
2019-04-05T16:21:31.366Z,11.92
2019-04-05T16:24:03.684Z,11.93
2019-04-05T16:26:38.559Z,11.77
2019-04-05T16:29:13.551Z,11.82
2019-04-05T16:31:48.612Z,11.80
2019-04-05T16:34:22.641Z,11.49
2019-04-05T16:36:55.872Z,11.37
2019-04-05T16:39:28.624Z,11.34
2019-04-05T16:42:10.858Z,11.47
2019-04-05T16:44:43.301Z,11.96
2019-04-05T16:47:20.776Z,12.25
2019-04-05T16:50:21.389Z,12.33
2019-04-05T16:52:53.155Z,12.16
2019-04-05T16:55:43.523Z,11.88
2019-04-05T16:58:15.321Z,11.67
2019-04-05T17:00:48.242Z,11.71
2019-04-05T17:03:38.763Z,11.87
2019-04-05T17:06:17.176Z,11.94
2019-04-05T17:08:48.729Z,11.98
2019-04-05T17:11:20.408Z,12.19
2019-04-05T17:13:52.082Z,12.32
2019-04-05T17:16:23.669Z,12.40
2019-04-05T17:18:55.222Z,12.40
2019-04-05T17:21:26.816Z,12.31
2019-04-05T17:23:58.763Z,12.42
2019-04-05T17:26:31.373Z,12.23
2019-04-05T17:29:03.125Z,11.97
2019-04-05T17:31:35.581Z,11.95
2019-04-05T17:34:12.417Z,11.98
2019-04-05T17:36:43.967Z,11.57
2019-04-05T17:39:15.609Z,11.44
2019-04-05T17:41:47.169Z,11.57
2019-04-05T17:44:19.769Z,11.47
2019-04-05T17:46:51.327Z,11.41
2019-04-05T17:49:22.923Z,11.35
2019-04-05T17:51:54.745Z,11.30
2019-04-05T17:54:26.392Z,11.20
2019-04-05T17:56:58.170Z,11.33
2019-04-05T17:59:31.259Z,11.14
2019-04-05T18:02:03.007Z,11.18
2019-04-05T18:04:34.601Z,11.17
2019-04-05T18:07:06.165Z,11.04
2019-04-05T18:09:37.749Z,11.01
2019-04-05T18:12:09.304Z,10.87
2019-04-05T18:14:41.006Z,10.44
2019-04-05T18:17:12.893Z,10.35
2019-04-05T18:19:44.502Z,10.38
2019-04-05T18:22:16.054Z,10.34
2019-04-05T18:24:47.647Z,10.43
2019-04-05T18:27:19.206Z,10.73
2019-04-05T18:29:50.909Z,10.65
2019-04-05T18:32:22.474Z,10.54
2019-04-05T18:34:54.130Z,10.58
2019-04-05T18:37:25.698Z,10.37
2019-04-05T18:39:59.188Z,10.36
2019-04-05T18:42:30.853Z,10.21
2019-04-05T18:45:02.430Z,10.02
2019-04-05T18:47:34.177Z,9.89
2019-04-05T18:50:06.215Z,9.63
2019-04-05T18:52:37.766Z,9.60
2019-04-05T18:55:09.760Z,9.43
2019-04-05T18:57:41.339Z,9.45
2019-04-05T19:00:13.520Z,9.31
2019-04-05T19:02:45.099Z,9.26
2019-04-05T19:05:16.774Z,9.01
2019-04-05T19:07:48.702Z,8.95
2019-04-05T19:10:20.271Z,8.96
2019-04-05T19:12:52.357Z,8.75
2019-04-05T19:15:24.086Z,8.81
2019-04-05T19:17:55.696Z,8.74
2019-04-05T19:20:27.900Z,8.70
2019-04-05T19:22:59.559Z,8.99
2019-04-05T19:25:31.367Z,9.13
2019-04-05T19:28:03.894Z,9.10
2019-04-05T19:48:30.550Z,8.60
2019-04-05T19:51:02.482Z,8.65
2019-04-05T19:53:34.093Z,8.65
2019-04-05T19:56:05.969Z,8.56
2019-04-05T19:58:37.723Z,8.45
2019-04-05T20:01:09.808Z,8.49
2019-04-05T20:03:41.434Z,8.41
2019-04-05T20:06:13.143Z,8.41
2019-04-05T20:08:44.778Z,8.41
2019-04-05T20:11:18.020Z,8.39
2019-04-05T20:13:49.823Z,8.37
2019-04-05T20:16:21.524Z,8.37
2019-04-05T20:18:53.642Z,8.24
2019-04-05T20:21:26.140Z,8.30
2019-04-05T20:23:57.895Z,8.24
2019-04-05T20:26:30.281Z,8.18
2019-04-05T20:29:02.381Z,8.22
2019-04-05T20:31:34.104Z,8.25
2019-04-05T20:34:05.965Z,8.27
2019-04-05T20:36:37.735Z,8.20
2019-04-05T20:39:09.623Z,8.20
2019-04-05T20:41:41.708Z,8.23
2019-04-05T20:44:13.700Z,7.76
2019-04-05T20:46:45.357Z,7.80
2019-04-05T20:49:17.025Z,7.84
2019-04-05T20:51:49.405Z,7.99
2019-04-05T20:54:24.775Z,7.85
2019-04-05T20:56:54.726Z,7.79
2019-04-05T20:59:27.162Z,8.15
2019-04-05T21:01:58.817Z,8.28
2019-04-05T21:04:30.530Z,8.32
2019-04-05T21:07:02.269Z,8.33
2019-04-05T21:09:34.002Z,8.32
2019-04-05T21:12:06.158Z,8.35
2019-04-05T21:14:37.835Z,8.40
2019-04-05T21:17:09.510Z,8.36
2019-04-05T21:19:42.537Z,8.36
2019-04-05T21:22:14.196Z,8.24
2019-04-05T21:24:45.867Z,8.34
2019-04-05T21:27:17.521Z,8.36
2019-04-05T21:29:49.160Z,8.37
2019-04-05T21:32:20.955Z,8.42
2019-04-05T21:34:52.889Z,8.42
2019-04-05T21:37:25.203Z,8.50
2019-04-05T21:39:57.422Z,8.28
2019-04-05T21:42:29.098Z,8.42
2019-04-05T21:45:01.039Z,8.38
2019-04-05T21:47:32.698Z,8.31
2019-04-05T21:50:04.463Z,8.37
2019-04-05T21:52:36.133Z,8.36
2019-04-05T21:55:08.112Z,8.44
2019-04-05T21:57:39.772Z,8.40
2019-04-05T22:00:20.440Z,8.50
2019-04-05T22:02:54.202Z,8.45
2019-04-05T22:05:26.193Z,8.44
2019-04-05T22:07:58.161Z,8.47
2019-04-05T22:10:29.938Z,8.50
2019-04-05T22:13:04.552Z,8.51
2019-04-05T22:15:36.191Z,8.55
2019-04-05T22:18:07.836Z,8.54
2019-04-05T22:20:39.452Z,8.52
2019-04-05T22:23:11.155Z,8.50
2019-04-05T22:25:42.840Z,8.50
2019-04-05T22:28:14.471Z,8.44
2019-04-05T22:30:46.180Z,8.56
2019-04-05T22:33:17.771Z,8.54
2019-04-05T22:35:49.394Z,8.56
2019-04-05T22:38:21.024Z,8.55
2019-04-05T22:40:52.691Z,8.55
2019-04-05T22:43:24.329Z,8.59
2019-04-05T22:45:55.923Z,8.66
2019-04-05T22:48:27.592Z,8.68
2019-04-05T22:50:59.218Z,8.67
2019-04-05T22:53:30.861Z,8.68
2019-04-05T22:56:02.444Z,8.72
2019-04-05T22:58:34.085Z,8.60
2019-04-05T23:01:05.867Z,8.63
2019-04-05T23:03:37.452Z,8.58
2019-04-05T23:06:09.187Z,8.65
2019-04-05T23:08:41.768Z,8.63
2019-04-05T23:11:13.369Z,8.72
2019-04-05T23:13:44.993Z,8.80
2019-04-05T23:16:17.569Z,8.82
2019-04-05T23:18:49.995Z,8.83
2019-04-05T23:21:22.024Z,8.83
2019-04-05T23:23:53.649Z,8.88
2019-04-05T23:26:25.680Z,8.81
2019-04-05T23:28:57.286Z,8.77
2019-04-05T23:31:29.025Z,8.75
2019-04-05T23:34:00.648Z,8.89
2019-04-05T23:36:32.275Z,8.91
2019-04-05T23:39:05.247Z,8.90
2019-04-05T23:41:37.139Z,8.94
2019-04-05T23:44:09.108Z,8.93
2019-04-05T23:46:40.695Z,8.84
2019-04-05T23:49:12.328Z,8.89
2019-04-05T23:51:43.902Z,8.84
2019-04-05T23:54:15.912Z,8.86
2019-04-05T23:56:47.502Z,8.72
2019-04-05T23:59:20.644Z,8.76
